createdAt,value
2023-04-01T00:01:21.525Z,58.51
2023-04-01T00:03:50.769Z,58.62
2023-04-01T00:06:20.592Z,58.49
2023-04-01T00:08:49.695Z,58.52
2023-04-01T00:11:20.552Z,58.44
2023-04-01T00:13:49.959Z,57.96
2023-04-01T00:16:22.061Z,57.80
2023-04-01T00:18:52.774Z,57.65
2023-04-01T00:21:23.324Z,57.67
2023-04-01T00:23:53.258Z,57.71
2023-04-01T00:26:23.320Z,57.56
2023-04-01T00:28:52.562Z,56.84
2023-04-01T00:31:22.133Z,57.08
2023-04-01T00:33:51.149Z,56.79
2023-04-01T00:36:23.095Z,56.69
2023-04-01T00:38:52.045Z,56.49
2023-04-01T00:41:22.770Z,56.01
2023-04-01T00:43:53.169Z,56.01
2023-04-01T00:46:22.069Z,55.73
2023-04-01T00:48:57.922Z,55.50
2023-04-01T00:51:31.163Z,55.19
2023-04-01T00:54:03.252Z,55.14
2023-04-01T00:56:57.306Z,55.13
2023-04-01T00:59:31.426Z,54.69
2023-04-01T01:02:02.936Z,53.88
2023-04-01T01:04:35.384Z,53.59
2023-04-01T01:07:16.354Z,53.33
2023-04-01T01:09:57.431Z,53.22
2023-04-01T01:12:41.756Z,53.17
2023-04-01T01:15:19.369Z,52.04
2023-04-01T01:17:57.375Z,51.57
2023-04-01T01:20:50.443Z,51.72
2023-04-01T01:24:00.501Z,51.54
2023-04-01T01:26:42.114Z,51.18
2023-04-01T01:29:54.086Z,50.47
2023-04-01T01:32:47.523Z,50.46
2023-04-01T01:35:26.067Z,50.61
2023-04-01T01:38:05.615Z,49.23
2023-04-01T01:40:38.516Z,49.10
2023-04-01T01:43:13.264Z,48.97
2023-04-01T01:45:46.580Z,48.49
2023-04-01T01:48:29.356Z,47.64
2023-04-01T01:50:59.168Z,46.57
2023-04-01T01:53:28.541Z,47.15
2023-04-01T01:55:57.673Z,48.01
2023-04-01T01:58:44.376Z,46.66
2023-04-01T02:01:22.585Z,46.07
2023-04-01T02:03:53.838Z,47.77
2023-04-01T02:06:25.638Z,48.41
2023-04-01T02:09:14.922Z,47.23
2023-04-01T02:11:51.404Z,46.73
2023-04-01T02:14:27.710Z,45.77
2023-04-01T02:17:24.786Z,44.75
2023-04-01T02:20:13.398Z,44.24
2023-04-01T02:22:52.978Z,44.36
2023-04-01T02:25:29.834Z,43.38
2023-04-01T02:28:01.680Z,40.05
2023-04-01T02:30:33.732Z,40.88
2023-04-01T02:33:04.111Z,41.96
2023-04-01T02:35:38.895Z,42.87
2023-04-01T02:38:09.721Z,43.86
2023-04-01T02:40:51.624Z,43.47
2023-04-01T02:43:21.426Z,43.46
2023-04-01T02:45:50.228Z,43.79
2023-04-01T02:48:20.383Z,43.35
2023-04-01T02:50:50.592Z,44.06
2023-04-01T02:53:19.641Z,43.49
2023-04-01T02:55:51.458Z,41.48
2023-04-01T02:58:21.058Z,40.70
2023-04-01T03:00:50.568Z,42.76
2023-04-01T03:03:19.726Z,41.74
2023-04-01T03:05:50.546Z,39.54
2023-04-01T03:08:21.229Z,39.04
2023-04-01T03:10:50.303Z,39.34
2023-04-01T03:13:19.105Z,39.65
2023-04-01T03:15:47.872Z,40.50
2023-04-01T03:18:17.079Z,41.04
2023-04-01T03:20:46.768Z,41.06
2023-04-01T03:23:18.043Z,41.31
2023-04-01T03:25:47.450Z,41.11
2023-04-01T03:28:17.125Z,39.13
2023-04-01T03:30:46.754Z,37.74
2023-04-01T03:33:15.845Z,37.64
2023-04-01T03:35:44.744Z,37.40
2023-04-01T03:38:13.504Z,35.92
2023-04-01T03:40:44.923Z,37.09
2023-04-01T03:43:14.283Z,37.85
2023-04-01T03:45:48.061Z,37.43
2023-04-01T03:48:17.764Z,37.29
2023-04-01T03:50:46.914Z,37.99
2023-04-01T03:53:17.018Z,38.07
2023-04-01T03:55:48.479Z,36.33
2023-04-01T03:58:18.204Z,36.86
2023-04-01T04:00:48.208Z,37.10
2023-04-01T04:03:17.610Z,36.92
2023-04-01T04:05:51.131Z,36.98
2023-04-01T04:08:23.044Z,35.76
2023-04-01T04:10:58.950Z,36.03
2023-04-01T04:13:27.923Z,33.64
2023-04-01T04:16:02.623Z,32.83
2023-04-01T04:18:32.160Z,32.22
2023-04-01T04:21:01.076Z,33.15
2023-04-01T04:23:31.377Z,34.59
2023-04-01T04:26:08.522Z,35.69
2023-04-01T04:28:37.099Z,36.28
2023-04-01T04:31:09.564Z,35.50
2023-04-01T04:33:39.228Z,33.98
2023-04-01T04:36:08.687Z,33.31
2023-04-01T04:38:37.613Z,33.46
2023-04-01T04:41:19.409Z,32.02
2023-04-01T04:43:54.477Z,32.96
2023-04-01T04:46:24.938Z,33.75
2023-04-01T04:48:59.896Z,32.20
2023-04-01T04:51:28.893Z,32.82
2023-04-01T04:53:58.375Z,33.67
2023-04-01T04:56:40.180Z,33.02
2023-04-01T04:59:11.111Z,33.03
2023-04-01T05:01:48.984Z,33.46
2023-04-01T05:04:18.277Z,33.50
2023-04-01T05:06:47.318Z,34.40
2023-04-01T05:09:17.161Z,34.28
2023-04-01T05:11:47.024Z,34.07
2023-04-01T05:14:17.421Z,31.68
2023-04-01T05:16:55.964Z,31.04
2023-04-01T05:19:24.958Z,29.96
2023-04-01T05:21:54.591Z,29.84
2023-04-01T05:24:23.889Z,29.03
2023-04-01T05:26:54.688Z,27.38
2023-04-01T05:29:26.408Z,28.59
2023-04-01T05:32:02.310Z,28.82
2023-04-01T05:34:31.207Z,30.72
2023-04-01T05:37:00.545Z,31.22
2023-04-01T05:39:30.030Z,29.14
2023-04-01T05:41:59.500Z,28.74
2023-04-01T05:44:29.170Z,29.22
2023-04-01T05:47:21.329Z,30.64
2023-04-01T05:49:50.644Z,31.13
2023-04-01T05:52:19.846Z,31.68
2023-04-01T05:54:48.947Z,31.81
2023-04-01T05:57:17.924Z,32.02
2023-04-01T05:59:47.548Z,31.82
2023-04-01T06:02:20.395Z,29.44
2023-04-01T06:04:52.200Z,28.38
2023-04-01T06:07:21.463Z,27.20
2023-04-01T06:09:50.375Z,28.29
2023-04-01T06:12:28.631Z,28.94
2023-04-01T06:15:32.980Z,29.16
2023-04-01T06:18:27.627Z,29.76
2023-04-01T06:21:05.366Z,29.23
2023-04-01T06:23:48.570Z,29.77
2023-04-01T06:26:45.785Z,30.22
2023-04-01T06:29:46.638Z,27.96
2023-04-01T06:32:53.164Z,28.13
2023-04-01T06:35:39.803Z,29.82
2023-04-01T06:38:38.449Z,28.94
2023-04-01T06:41:35.543Z,29.23
2023-04-01T06:44:18.936Z,29.78
2023-04-01T06:47:31.197Z,30.19
2023-04-01T06:50:36.786Z,30.24
2023-04-01T06:53:44.669Z,31.27
2023-04-01T06:56:33.968Z,29.96
2023-04-01T06:59:17.526Z,28.63
2023-04-01T07:02:13.477Z,27.10
2023-04-01T07:04:48.562Z,25.95
2023-04-01T07:07:43.495Z,25.86
2023-04-01T07:10:39.078Z,24.93
2023-04-01T07:14:02.146Z,27.43
2023-04-01T07:16:42.360Z,28.54
2023-04-01T07:19:30.823Z,28.80
2023-04-01T07:22:33.819Z,29.57
2023-04-01T07:25:17.921Z,29.82
2023-04-01T07:27:59.379Z,29.51
2023-04-01T07:30:36.019Z,29.55
2023-04-01T07:33:14.751Z,29.72
2023-04-01T07:36:01.730Z,29.57
2023-04-01T07:39:08.045Z,30.03
2023-04-01T07:42:18.115Z,28.91
2023-04-01T07:44:54.092Z,27.65
2023-04-01T07:47:39.683Z,26.66
2023-04-01T07:51:04.357Z,24.92
2023-04-01T07:53:42.993Z,23.83
2023-04-01T07:56:41.023Z,23.11
2023-04-01T07:59:56.514Z,23.62
2023-04-01T08:02:47.573Z,24.56
2023-04-01T08:05:49.031Z,23.81
2023-04-01T08:08:43.674Z,22.99
2023-04-01T08:12:07.179Z,23.54
2023-04-01T08:15:04.674Z,24.25
2023-04-01T08:17:57.750Z,23.58
2023-04-01T08:20:44.026Z,24.34
2023-04-01T08:23:17.960Z,23.50
2023-04-01T08:25:58.936Z,22.03
2023-04-01T08:28:57.026Z,22.42
2023-04-01T08:31:52.235Z,22.72
2023-04-01T08:34:28.665Z,21.70
2023-04-01T08:37:16.386Z,22.49
2023-04-01T08:39:52.297Z,23.93
2023-04-01T08:42:43.853Z,24.98
2023-04-01T08:45:28.468Z,24.96
2023-04-01T08:48:43.031Z,25.41
2023-04-01T08:51:58.090Z,25.38
2023-04-01T08:54:47.275Z,25.60
2023-04-01T08:57:42.767Z,26.12
2023-04-01T09:00:56.391Z,26.26
2023-04-01T09:04:09.187Z,26.56
2023-04-01T09:06:41.277Z,26.76
2023-04-01T09:09:31.974Z,26.56
2023-04-01T09:12:29.507Z,26.95
2023-04-01T09:15:44.371Z,26.88
2023-04-01T09:19:02.957Z,27.21
2023-04-01T09:21:45.037Z,27.57
2023-04-01T09:24:17.257Z,27.63
2023-04-01T09:26:58.501Z,28.21
2023-04-01T09:30:05.022Z,27.95
2023-04-01T09:33:08.244Z,28.63
2023-04-01T09:36:19.541Z,28.25
2023-04-01T09:39:12.545Z,28.69
2023-04-01T09:41:47.744Z,28.75
2023-04-01T09:44:51.030Z,29.04
2023-04-01T09:47:44.624Z,29.01
2023-04-01T09:50:42.211Z,29.27
2023-04-01T09:53:44.820Z,29.09
2023-04-01T09:57:03.522Z,29.21
2023-04-01T09:59:41.340Z,29.18
2023-04-01T10:03:03.427Z,29.53
2023-04-01T10:05:57.703Z,29.12
2023-04-01T10:08:42.127Z,29.60
2023-04-01T10:11:51.713Z,29.83
2023-04-01T10:14:53.298Z,30.22
2023-04-01T10:17:59.624Z,30.70
2023-04-01T10:21:02.326Z,30.70
2023-04-01T10:23:54.899Z,31.30
2023-04-01T10:26:45.176Z,31.53
2023-04-01T10:29:58.635Z,31.37
2023-04-01T10:32:58.791Z,31.25
2023-04-01T10:35:31.784Z,31.71
2023-04-01T10:38:20.972Z,31.73
2023-04-01T10:41:11.133Z,31.70
2023-04-01T10:44:32.863Z,31.91
2023-04-01T10:47:44.265Z,32.26
2023-04-01T10:50:50.854Z,32.30
2023-04-01T10:53:32.542Z,32.46
2023-04-01T10:56:40.305Z,32.64
2023-04-01T10:59:33.622Z,32.59
2023-04-01T11:02:46.064Z,32.73
2023-04-01T11:06:00.755Z,32.97
2023-04-01T11:09:15.911Z,33.18
2023-04-01T11:12:03.220Z,33.24
2023-04-01T11:15:00.914Z,33.06
2023-04-01T11:18:13.958Z,33.45
2023-04-01T11:20:59.465Z,33.35
2023-04-01T11:23:45.525Z,33.59
2023-04-01T11:26:22.127Z,33.53
2023-04-01T11:29:49.796Z,33.85
2023-04-01T11:33:03.016Z,33.82
2023-04-01T11:35:44.370Z,33.78
2023-04-01T11:38:40.405Z,34.15
2023-04-01T11:42:15.181Z,33.80
2023-04-01T11:45:34.927Z,34.07
2023-04-01T11:48:25.971Z,34.63
2023-04-01T11:51:47.691Z,34.28
2023-04-01T11:54:51.295Z,34.62
2023-04-01T12:01:00.357Z,34.75
2023-04-01T12:03:49.848Z,34.85
2023-04-01T12:06:18.634Z,34.81
2023-04-01T12:08:59.299Z,35.05
2023-04-01T12:11:46.149Z,35.24
2023-04-01T12:14:52.725Z,34.72
2023-04-01T12:17:37.016Z,35.01
2023-04-01T12:20:14.690Z,35.27
2023-04-01T12:22:55.323Z,35.41
2023-04-01T12:26:07.224Z,35.29
2023-04-01T12:28:45.599Z,35.45
2023-04-01T12:31:38.906Z,35.33
2023-04-01T12:34:35.139Z,35.38
2023-04-01T12:37:22.404Z,35.64
2023-04-01T12:40:10.669Z,35.46
2023-04-01T12:42:45.322Z,35.74
2023-04-01T12:45:41.632Z,35.66
2023-04-01T12:48:23.855Z,35.60
2023-04-01T12:51:18.345Z,35.76
2023-04-01T12:54:55.667Z,36.14
2023-04-01T12:57:44.618Z,35.62
2023-04-01T13:00:32.533Z,35.99
2023-04-01T13:03:27.324Z,36.09
2023-04-01T13:06:22.265Z,35.88
2023-04-01T13:09:05.953Z,35.91
2023-04-01T13:12:02.692Z,36.66
2023-04-01T13:14:58.781Z,36.01
2023-04-01T13:17:37.190Z,36.66
2023-04-01T13:20:45.499Z,35.94
2023-04-01T13:23:32.763Z,36.58
2023-04-01T13:26:14.248Z,36.69
2023-04-01T13:28:55.342Z,36.83
2023-04-01T13:32:02.564Z,36.34
2023-04-01T13:34:46.426Z,36.86
2023-04-01T13:37:15.247Z,36.59
2023-04-01T13:39:58.171Z,36.57
2023-04-01T13:42:42.084Z,37.09
2023-04-01T13:45:17.412Z,37.05
2023-04-01T13:48:20.986Z,37.28
2023-04-01T13:51:05.986Z,37.12
2023-04-01T13:54:06.898Z,37.40
2023-04-01T13:57:15.977Z,36.81
2023-04-01T14:00:23.974Z,36.98
2023-04-01T14:03:14.520Z,36.99
2023-04-01T14:06:05.432Z,37.12
2023-04-01T14:09:02.257Z,37.07
2023-04-01T14:11:41.372Z,36.90
2023-04-01T14:14:30.918Z,37.23
2023-04-01T14:17:09.863Z,37.26
2023-04-01T14:19:42.513Z,37.28
2023-04-01T14:22:47.892Z,37.82
2023-04-01T14:26:15.493Z,37.34
2023-04-01T14:29:09.089Z,37.85
2023-04-01T14:32:15.272Z,37.68
2023-04-01T14:35:15.680Z,37.62
2023-04-01T14:38:10.905Z,37.42
2023-04-01T14:41:25.034Z,37.78
2023-04-01T14:44:35.181Z,37.99
2023-04-01T14:47:18.312Z,38.15
2023-04-01T14:50:05.240Z,38.09
2023-04-01T14:52:40.540Z,37.84
2023-04-01T14:55:45.245Z,38.14
2023-04-01T14:58:19.010Z,38.23
2023-04-01T15:01:02.583Z,38.13
2023-04-01T15:03:39.457Z,38.30
2023-04-01T15:06:43.001Z,38.29
2023-04-01T15:09:31.595Z,38.13
2023-04-01T15:12:19.034Z,38.14
2023-04-01T15:15:00.456Z,38.44
2023-04-01T15:17:49.829Z,38.17
2023-04-01T15:20:36.315Z,38.30
2023-04-01T15:23:29.539Z,38.32
2023-04-01T15:26:23.383Z,38.30
2023-04-01T15:29:25.675Z,38.52
2023-04-01T15:32:09.750Z,38.84
2023-04-01T15:35:02.430Z,38.91
2023-04-01T15:37:54.113Z,38.65
2023-04-01T15:40:32.851Z,38.82
2023-04-01T15:43:29.052Z,38.69
2023-04-01T15:46:16.447Z,38.48
2023-04-01T15:49:03.834Z,38.76
2023-04-01T15:51:38.542Z,38.99
2023-04-01T15:54:22.589Z,38.80
2023-04-01T15:57:18.773Z,38.70
2023-04-01T16:00:13.536Z,38.70
2023-04-01T16:03:11.354Z,38.97
2023-04-01T16:06:06.784Z,38.97
2023-04-01T16:09:01.723Z,39.17
2023-04-01T16:11:45.889Z,39.05
2023-04-01T16:14:46.829Z,38.86
2023-04-01T16:17:25.305Z,38.89
2023-04-01T16:20:28.434Z,39.46
2023-04-01T16:23:20.437Z,39.32
2023-04-01T16:26:08.394Z,39.32
2023-04-01T16:28:56.829Z,39.25
2023-04-01T16:31:39.084Z,39.31
2023-04-01T16:34:36.535Z,39.18
2023-04-01T16:37:14.646Z,39.64
2023-04-01T16:40:08.584Z,39.74
2023-04-01T16:42:53.973Z,39.62
2023-04-01T16:45:49.643Z,39.41
2023-04-01T16:48:38.362Z,39.54
2023-04-01T16:51:17.678Z,39.60
2023-04-01T16:53:55.779Z,39.73
2023-04-01T16:56:38.197Z,39.68
2023-04-01T16:59:30.288Z,39.49
2023-04-01T17:02:05.098Z,39.68
2023-04-01T17:04:48.739Z,39.87
2023-04-01T17:07:23.898Z,39.65
2023-04-01T17:10:11.288Z,39.76
2023-04-01T17:12:54.910Z,40.02
2023-04-01T17:15:42.744Z,40.12
2023-04-01T17:18:27.227Z,39.63
2023-04-01T17:21:26.281Z,39.57
2023-04-01T17:24:06.966Z,39.73
2023-04-01T17:26:52.074Z,40.07
2023-04-01T17:29:26.857Z,40.31
2023-04-01T17:32:18.992Z,40.09
2023-04-01T17:35:08.383Z,40.21
2023-04-01T17:37:42.845Z,40.42
2023-04-01T17:40:35.488Z,40.00
2023-04-01T17:43:42.076Z,40.17
2023-04-01T17:46:37.769Z,40.10
2023-04-01T17:49:24.804Z,40.45
2023-04-01T17:52:30.790Z,40.19
2023-04-01T17:55:18.535Z,40.24
2023-04-01T17:58:24.157Z,40.26
2023-04-01T18:01:04.997Z,40.77
2023-04-01T18:03:52.537Z,40.58
2023-04-01T18:06:48.745Z,40.50
2023-04-01T18:09:20.482Z,40.60
2023-04-01T18:11:56.464Z,40.33
2023-04-01T18:14:55.999Z,40.77
2023-04-01T18:17:52.229Z,40.98
2023-04-01T18:20:44.423Z,40.93
2023-04-01T18:23:37.071Z,41.01
2023-04-01T18:26:16.218Z,41.12
2023-04-01T18:28:58.007Z,40.93
2023-04-01T18:31:34.623Z,40.91
2023-04-01T18:34:21.903Z,41.25
2023-04-01T18:37:18.730Z,41.15
2023-04-01T18:40:29.126Z,41.42
2023-04-01T18:43:45.386Z,41.28
2023-04-01T18:46:21.434Z,40.91
2023-04-01T18:49:26.802Z,41.33
2023-04-01T18:51:57.568Z,41.24
2023-04-01T18:54:42.314Z,41.40
2023-04-01T18:57:16.197Z,41.39
2023-04-01T18:59:53.182Z,41.26
2023-04-01T19:02:31.061Z,41.39
2023-04-01T19:05:03.159Z,41.38
2023-04-01T19:07:37.962Z,41.49
2023-04-01T19:10:27.976Z,41.73
2023-04-01T19:13:09.476Z,42.08
2023-04-01T19:16:03.289Z,41.93
2023-04-01T19:18:55.685Z,41.78
2023-04-01T19:21:34.757Z,41.82
2023-04-01T19:24:38.328Z,41.97
2023-04-01T19:27:29.553Z,41.88
2023-04-01T19:30:23.811Z,41.69
2023-04-01T19:33:06.235Z,42.04
2023-04-01T19:36:16.757Z,42.01
2023-04-01T19:38:58.933Z,42.12
2023-04-01T19:41:54.542Z,42.17
2023-04-01T19:44:32.141Z,41.79
2023-04-01T19:47:34.428Z,41.96
2023-04-01T19:50:31.004Z,41.99
2023-04-01T19:53:10.300Z,41.85
2023-04-01T19:55:51.234Z,42.38
2023-04-01T19:58:33.156Z,42.33
2023-04-01T20:01:06.550Z,42.25
2023-04-01T20:03:50.506Z,42.44
2023-04-01T20:06:25.361Z,42.52
2023-04-01T20:09:15.194Z,42.37
2023-04-01T20:11:52.624Z,42.52
2023-04-01T20:14:58.327Z,42.23
2023-04-01T20:17:32.200Z,42.27
2023-04-01T20:20:10.089Z,42.69
2023-04-01T20:22:47.766Z,42.72
2023-04-01T20:25:28.689Z,42.68
2023-04-01T20:27:57.357Z,42.68
2023-04-01T20:30:37.350Z,42.62
2023-04-01T20:33:41.665Z,42.79
2023-04-01T20:36:37.715Z,42.75
2023-04-01T20:39:35.692Z,42.83
2023-04-01T20:42:56.073Z,42.63
2023-04-01T20:45:46.733Z,42.70
2023-04-01T20:48:43.245Z,42.33
2023-04-01T20:51:17.330Z,42.88
2023-04-01T20:53:52.937Z,42.89
2023-04-01T20:56:29.994Z,43.01
2023-04-01T20:59:30.036Z,42.93
2023-04-01T21:02:04.221Z,42.85
2023-04-01T21:04:53.283Z,42.86
2023-04-01T21:07:58.036Z,42.97
2023-04-01T21:10:51.815Z,42.98
2023-04-01T21:13:55.729Z,43.22
2023-04-01T21:17:00.563Z,43.26
2023-04-01T21:19:53.578Z,42.82
2023-04-01T21:22:25.128Z,42.78
2023-04-01T21:25:24.109Z,43.20
2023-04-01T21:28:20.201Z,43.17
2023-04-01T21:30:59.720Z,43.05
2023-04-01T21:33:34.022Z,43.23
2023-04-01T21:36:27.965Z,43.43
2023-04-01T21:40:02.015Z,43.19
2023-04-01T21:43:05.445Z,43.35
2023-04-01T21:46:09.530Z,43.35
2023-04-01T21:48:53.330Z,43.37
2023-04-01T21:51:45.567Z,43.40
2023-04-01T21:54:34.669Z,43.47
2023-04-01T21:57:22.653Z,43.47
2023-04-01T22:00:15.506Z,43.59
2023-04-01T22:03:06.115Z,43.37
2023-04-01T22:05:47.530Z,43.62
2023-04-01T22:08:32.941Z,43.56
2023-04-01T22:11:23.302Z,43.58
2023-04-01T22:13:51.930Z,43.79
2023-04-01T22:16:46.234Z,43.95
2023-04-01T22:19:21.767Z,43.88
2023-04-01T22:21:53.667Z,43.78
2023-04-01T22:24:35.316Z,43.96
2023-04-01T22:27:25.468Z,43.90
2023-04-01T22:30:12.109Z,43.96
2023-04-01T22:33:01.900Z,43.95
2023-04-01T22:35:38.742Z,43.93
2023-04-01T22:38:43.942Z,44.12
2023-04-01T22:41:39.118Z,43.72
2023-04-01T22:44:30.460Z,43.88
2023-04-01T22:47:34.996Z,43.81
2023-04-01T22:50:20.191Z,43.98
2023-04-01T22:52:55.532Z,43.97
2023-04-01T22:55:29.892Z,43.81
2023-04-01T22:58:13.259Z,44.12
2023-04-01T23:00:52.256Z,44.16
2023-04-01T23:03:46.856Z,44.12
2023-04-01T23:06:31.590Z,44.09
2023-04-01T23:09:38.520Z,44.16
2023-04-01T23:12:13.137Z,44.33
2023-04-01T23:14:53.942Z,44.08
2023-04-01T23:17:59.890Z,44.19
2023-04-01T23:20:33.895Z,44.11
2023-04-01T23:23:18.061Z,44.43
2023-04-01T23:25:58.232Z,44.35
2023-04-01T23:28:52.295Z,44.56
2023-04-01T23:31:37.048Z,44.34
2023-04-01T23:34:32.742Z,44.51
2023-04-01T23:37:06.926Z,44.25
2023-04-01T23:39:42.479Z,44.51
2023-04-01T23:42:24.477Z,44.42
2023-04-01T23:45:03.498Z,44.46
2023-04-01T23:47:39.705Z,44.31
2023-04-01T23:50:26.382Z,44.48
2023-04-01T23:53:14.665Z,44.39
2023-04-01T23:55:44.219Z,44.61
2023-04-01T23:58:27.930Z,44.62
